sensor_id;sensor_type;location;lat;lon;timestamp;pressure;altitude;pressure_sealevel;temperature;humidity
71716;BME280;59568;52.128;5.434;2022-09-03T00:00:49;101294.25;;;16.66;50.12
71716;BME280;59568;52.128;5.434;2022-09-03T00:03:51;101294.41;;;16.61;50.22
71716;BME280;59568;52.128;5.434;2022-09-03T00:06:44;101288.19;;;16.57;50.11
71716;BME280;59568;52.128;5.434;2022-09-03T00:09:23;101289.59;;;16.54;50.25
71716;BME280;59568;52.128;5.434;2022-09-03T00:14:56;101289.16;;;16.52;50.23
71716;BME280;59568;52.128;5.434;2022-09-03T00:17:31;101292.72;;;16.48;50.14
71716;BME280;59568;52.128;5.434;2022-09-03T00:20:12;101286.22;;;16.45;50.86
71716;BME280;59568;52.128;5.434;2022-09-03T00:22:44;101284.97;;;16.43;50.81
71716;BME280;59568;52.128;5.434;2022-09-03T00:25:18;101285.13;;;16.37;50.91
71716;BME280;59568;52.128;5.434;2022-09-03T00:27:52;101288.88;;;16.36;50.72
71716;BME280;59568;52.128;5.434;2022-09-03T00:30:21;101283.91;;;16.35;50.91
71716;BME280;59568;52.128;5.434;2022-09-03T00:33:16;101281.56;;;16.33;50.94
71716;BME280;59568;52.128;5.434;2022-09-03T00:36:01;101278.81;;;16.30;51.33
71716;BME280;59568;52.128;5.434;2022-09-03T00:38:30;101279.72;;;16.25;50.96
71716;BME280;59568;52.128;5.434;2022-09-03T00:46:16;101282.84;;;16.18;50.91
71716;BME280;59568;52.128;5.434;2022-09-03T00:49:04;101270.59;;;16.14;51.33
71716;BME280;59568;52.128;5.434;2022-09-03T00:52:13;101277.25;;;16.11;51.91
71716;BME280;59568;52.128;5.434;2022-09-03T00:57:19;101272.75;;;16.03;51.39
71716;BME280;59568;52.128;5.434;2022-09-03T01:00:07;101275.72;;;16.02;51.45
71716;BME280;59568;52.128;5.434;2022-09-03T01:02:46;101273.72;;;15.98;51.81
71716;BME280;59568;52.128;5.434;2022-09-03T01:05:27;101279.59;;;15.95;51.86
71716;BME280;59568;52.128;5.434;2022-09-03T01:11:03;101274.19;;;15.92;51.95
71716;BME280;59568;52.128;5.434;2022-09-03T01:13:42;101281.94;;;15.88;52.43
71716;BME280;59568;52.128;5.434;2022-09-03T01:24:43;101281.78;;;15.76;51.81
71716;BME280;59568;52.128;5.434;2022-09-03T01:27:43;101283.44;;;15.72;52.02
71716;BME280;59568;52.128;5.434;2022-09-03T01:30:14;101282.03;;;15.66;52.93
71716;BME280;59568;52.128;5.434;2022-09-03T01:35:48;101290.09;;;15.61;52.37
71716;BME280;59568;52.128;5.434;2022-09-03T01:38:26;101291.47;;;15.58;52.56
71716;BME280;59568;52.128;5.434;2022-09-03T01:44:09;101289.44;;;15.55;52.98
71716;BME280;59568;52.128;5.434;2022-09-03T01:46:42;101283.56;;;15.49;53.15
71716;BME280;59568;52.128;5.434;2022-09-03T01:49:24;101285.41;;;15.49;53.20
71716;BME280;59568;52.128;5.434;2022-09-03T01:52:02;101288.84;;;15.49;53.54
71716;BME280;59568;52.128;5.434;2022-09-03T01:54:47;101291.47;;;15.49;52.92
71716;BME280;59568;52.128;5.434;2022-09-03T01:57:21;101293.00;;;15.50;52.83
71716;BME280;59568;52.128;5.434;2022-09-03T02:00:09;101296.75;;;15.49;53.22
71716;BME280;59568;52.128;5.434;2022-09-03T02:02:43;101294.09;;;15.49;53.12
71716;BME280;59568;52.128;5.434;2022-09-03T02:05:20;101295.66;;;15.50;53.17
71716;BME280;59568;52.128;5.434;2022-09-03T02:10:43;101279.84;;;15.50;53.07
71716;BME280;59568;52.128;5.434;2022-09-03T02:13:17;101286.22;;;15.49;53.21
71716;BME280;59568;52.128;5.434;2022-09-03T02:15:47;101285.72;;;15.47;52.90
71716;BME280;59568;52.128;5.434;2022-09-03T02:18:18;101285.56;;;15.44;53.86
71716;BME280;59568;52.128;5.434;2022-09-03T02:20:47;101281.66;;;15.41;53.37
71716;BME280;59568;52.128;5.434;2022-09-03T02:23:15;101276.41;;;15.41;53.14
71716;BME280;59568;52.128;5.434;2022-09-03T02:25:51;101277.03;;;15.38;53.11
71716;BME280;59568;52.128;5.434;2022-09-03T02:28:21;101281.38;;;15.34;53.22
71716;BME280;59568;52.128;5.434;2022-09-03T02:30:49;101290.31;;;15.33;53.08
71716;BME280;59568;52.128;5.434;2022-09-03T02:33:16;101281.19;;;15.30;54.14
71716;BME280;59568;52.128;5.434;2022-09-03T02:35:43;101284.75;;;15.26;53.75
71716;BME280;59568;52.128;5.434;2022-09-03T02:38:22;101278.84;;;15.20;53.81
71716;BME280;59568;52.128;5.434;2022-09-03T02:40:51;101276.34;;;15.15;53.62
71716;BME280;59568;52.128;5.434;2022-09-03T02:43:35;101273.56;;;15.11;54.26
71716;BME280;59568;52.128;5.434;2022-09-03T02:46:08;101281.28;;;15.08;54.65
71716;BME280;59568;52.128;5.434;2022-09-03T02:48:38;101276.94;;;15.03;54.71
71716;BME280;59568;52.128;5.434;2022-09-03T02:51:05;101279.09;;;15.01;54.33
71716;BME280;59568;52.128;5.434;2022-09-03T02:53:40;101270.72;;;14.99;54.09
71716;BME280;59568;52.128;5.434;2022-09-03T02:56:08;101277.19;;;14.93;54.47
71716;BME280;59568;52.128;5.434;2022-09-03T02:58:35;101276.41;;;14.92;54.65
71716;BME280;59568;52.128;5.434;2022-09-03T03:01:02;101275.47;;;14.88;54.63
71716;BME280;59568;52.128;5.434;2022-09-03T03:03:29;101271.13;;;14.84;54.66
71716;BME280;59568;52.128;5.434;2022-09-03T03:05:59;101271.44;;;14.82;54.94
71716;BME280;59568;52.128;5.434;2022-09-03T03:08:27;101273.59;;;14.80;55.07
71716;BME280;59568;52.128;5.434;2022-09-03T03:10:57;101272.34;;;14.77;55.35
71716;BME280;59568;52.128;5.434;2022-09-03T03:13:25;101269.72;;;14.77;54.79
71716;BME280;59568;52.128;5.434;2022-09-03T03:15:57;101271.09;;;14.75;54.96
71716;BME280;59568;52.128;5.434;2022-09-03T03:18:24;101259.63;;;14.71;55.22
71716;BME280;59568;52.128;5.434;2022-09-03T03:20:51;101263.63;;;14.68;54.76
71716;BME280;59568;52.128;5.434;2022-09-03T03:23:19;101261.59;;;14.65;55.26
71716;BME280;59568;52.128;5.434;2022-09-03T03:25:46;101258.97;;;14.65;55.73
71716;BME280;59568;52.128;5.434;2022-09-03T03:28:13;101254.78;;;14.64;55.18
71716;BME280;59568;52.128;5.434;2022-09-03T03:30:40;101263.75;;;14.63;55.78
71716;BME280;59568;52.128;5.434;2022-09-03T03:33:09;101252.78;;;14.61;55.61
71716;BME280;59568;52.128;5.434;2022-09-03T03:35:36;101262.03;;;14.58;55.85
71716;BME280;59568;52.128;5.434;2022-09-03T03:38:03;101257.84;;;14.57;55.52
71716;BME280;59568;52.128;5.434;2022-09-03T03:40:30;101255.50;;;14.56;55.77
71716;BME280;59568;52.128;5.434;2022-09-03T03:42:57;101260.28;;;14.54;56.20
71716;BME280;59568;52.128;5.434;2022-09-03T03:45:24;101257.16;;;14.52;55.99
71716;BME280;59568;52.128;5.434;2022-09-03T03:47:56;101262.44;;;14.52;55.96
71716;BME280;59568;52.128;5.434;2022-09-03T03:50:24;101257.16;;;14.52;55.69
71716;BME280;59568;52.128;5.434;2022-09-03T03:52:51;101256.41;;;14.51;55.69
71716;BME280;59568;52.128;5.434;2022-09-03T03:55:18;101261.03;;;14.54;56.00
71716;BME280;59568;52.128;5.434;2022-09-03T03:57:45;101262.59;;;14.55;55.79
71716;BME280;59568;52.128;5.434;2022-09-03T04:00:13;101271.00;;;14.57;56.21
71716;BME280;59568;52.128;5.434;2022-09-03T04:02:40;101259.72;;;14.57;56.27
71716;BME280;59568;52.128;5.434;2022-09-03T04:05:08;101264.97;;;14.57;56.23
71716;BME280;59568;52.128;5.434;2022-09-03T04:07:37;101266.50;;;14.58;55.90
71716;BME280;59568;52.128;5.434;2022-09-03T04:10:04;101266.81;;;14.56;56.63
71716;BME280;59568;52.128;5.434;2022-09-03T04:12:31;101264.47;;;14.55;56.13
71716;BME280;59568;52.128;5.434;2022-09-03T04:14:58;101261.84;;;14.55;56.08
71716;BME280;59568;52.128;5.434;2022-09-03T04:17:27;101271.28;;;14.56;56.16
71716;BME280;59568;52.128;5.434;2022-09-03T04:19:53;101272.34;;;14.55;56.21
71716;BME280;59568;52.128;5.434;2022-09-03T04:22:20;101268.16;;;14.54;56.18
71716;BME280;59568;52.128;5.434;2022-09-03T04:24:48;101266.91;;;14.51;56.14
71716;BME280;59568;52.128;5.434;2022-09-03T04:27:15;101260.41;;;14.49;56.32
71716;BME280;59568;52.128;5.434;2022-09-03T04:29:42;101259.63;;;14.48;56.18
71716;BME280;59568;52.128;5.434;2022-09-03T04:32:09;101262.56;;;14.47;56.32
71716;BME280;59568;52.128;5.434;2022-09-03T04:34:55;101262.09;;;14.45;56.37
71716;BME280;59568;52.128;5.434;2022-09-03T04:37:22;101261.00;;;14.46;56.69
71716;BME280;59568;52.128;5.434;2022-09-03T04:39:50;101257.13;;;14.43;56.61
71716;BME280;59568;52.128;5.434;2022-09-03T04:42:17;101253.41;;;14.44;56.76
71716;BME280;59568;52.128;5.434;2022-09-03T04:44:43;101257.91;;;14.44;56.93
71716;BME280;59568;52.128;5.434;2022-09-03T04:47:10;101262.09;;;14.45;56.64
71716;BME280;59568;52.128;5.434;2022-09-03T04:49:37;101256.84;;;14.45;56.40
71716;BME280;59568;52.128;5.434;2022-09-03T04:52:05;101256.03;;;14.44;56.30
71716;BME280;59568;52.128;5.434;2022-09-03T04:54:32;101258.38;;;14.46;56.47
71716;BME280;59568;52.128;5.434;2022-09-03T04:56:59;101260.81;;;14.42;57.18
71716;BME280;59568;52.128;5.434;2022-09-03T04:59:26;101259.47;;;14.45;56.32
71716;BME280;59568;52.128;5.434;2022-09-03T05:01:53;101259.94;;;14.47;56.36
71716;BME280;59568;52.128;5.434;2022-09-03T05:04:22;101262.09;;;14.45;56.45
71716;BME280;59568;52.128;5.434;2022-09-03T05:06:49;101271.53;;;14.46;56.50
71716;BME280;59568;52.128;5.434;2022-09-03T05:09:16;101269.84;;;14.50;56.30
71716;BME280;59568;52.128;5.434;2022-09-03T05:11:43;101277.13;;;14.53;56.63
71716;BME280;59568;52.128;5.434;2022-09-03T05:14:10;101277.63;;;14.55;56.53
71716;BME280;59568;52.128;5.434;2022-09-03T05:16:38;101275.75;;;14.55;56.22
71716;BME280;59568;52.128;5.434;2022-09-03T05:19:05;101283.84;;;14.59;56.35
71716;BME280;59568;52.128;5.434;2022-09-03T05:21:34;101278.59;;;14.59;56.47
71716;BME280;59568;52.128;5.434;2022-09-03T05:24:02;101274.88;;;14.60;57.02
71716;BME280;59568;52.128;5.434;2022-09-03T05:26:32;101260.47;;;14.57;57.21
71716;BME280;59568;52.128;5.434;2022-09-03T05:29:02;101269.63;;;14.60;56.86
71716;BME280;59568;52.128;5.434;2022-09-03T05:31:35;101252.44;;;14.63;57.12
71716;BME280;59568;52.128;5.434;2022-09-03T05:34:04;101255.88;;;14.63;57.14
71716;BME280;59568;52.128;5.434;2022-09-03T05:36:34;101257.88;;;14.66;56.86
71716;BME280;59568;52.128;5.434;2022-09-03T05:39:03;101257.88;;;14.66;56.72
71716;BME280;59568;52.128;5.434;2022-09-03T05:41:30;101253.41;;;14.67;57.18
71716;BME280;59568;52.128;5.434;2022-09-03T05:44:00;101257.88;;;14.66;56.99
71716;BME280;59568;52.128;5.434;2022-09-03T05:46:29;101257.41;;;14.64;57.23
71716;BME280;59568;52.128;5.434;2022-09-03T05:49:00;101252.63;;;14.66;56.89
71716;BME280;59568;52.128;5.434;2022-09-03T05:51:29;101255.25;;;14.66;57.05
71716;BME280;59568;52.128;5.434;2022-09-03T05:53:56;101251.75;;;14.71;57.78
71716;BME280;59568;52.128;5.434;2022-09-03T05:56:25;101259.19;;;14.77;56.88
71716;BME280;59568;52.128;5.434;2022-09-03T05:58:56;101259.50;;;14.85;56.78
71716;BME280;59568;52.128;5.434;2022-09-03T06:01:27;101262.84;;;14.99;56.74
71716;BME280;59568;52.128;5.434;2022-09-03T06:04:02;101267.72;;;15.32;56.33
71716;BME280;59568;52.128;5.434;2022-09-03T06:06:32;101262.84;;;15.74;55.79
71716;BME280;59568;52.128;5.434;2022-09-03T06:09:02;101263.78;;;15.78;54.84
71716;BME280;59568;52.128;5.434;2022-09-03T06:11:30;101267.81;;;15.93;54.61
71716;BME280;59568;52.128;5.434;2022-09-03T06:13:59;101266.41;;;15.87;54.45
71716;BME280;59568;52.128;5.434;2022-09-03T06:16:33;101269.22;;;15.82;54.71
71716;BME280;59568;52.128;5.434;2022-09-03T06:19:02;101272.00;;;15.76;55.09
71716;BME280;59568;52.128;5.434;2022-09-03T06:21:31;101273.88;;;15.76;54.96
71716;BME280;59568;52.128;5.434;2022-09-03T06:23:58;101266.88;;;15.80;55.41
71716;BME280;59568;52.128;5.434;2022-09-03T06:26:26;101264.09;;;15.85;55.96
71716;BME280;59568;52.128;5.434;2022-09-03T06:28:55;101264.69;;;16.00;55.57
71716;BME280;59568;52.128;5.434;2022-09-03T06:31:24;101269.19;;;16.25;55.82
71716;BME280;59568;52.128;5.434;2022-09-03T06:33:51;101254.41;;;16.42;55.21
71716;BME280;59568;52.128;5.434;2022-09-03T06:36:22;101253.31;;;16.43;56.52
71716;BME280;59568;52.128;5.434;2022-09-03T06:38:54;101258.41;;;16.48;55.30
71716;BME280;59568;52.128;5.434;2022-09-03T06:41:24;101261.19;;;16.60;54.48
71716;BME280;59568;52.128;5.434;2022-09-03T06:43:54;101265.16;;;16.84;53.91
71716;BME280;59568;52.128;5.434;2022-09-03T06:46:24;101260.44;;;16.98;54.56
71716;BME280;59568;52.128;5.434;2022-09-03T06:48:51;101258.84;;;17.06;55.73
71716;BME280;59568;52.128;5.434;2022-09-03T06:51:23;101263.38;;;17.05;53.83
71716;BME280;59568;52.128;5.434;2022-09-03T06:53:53;101264.72;;;17.11;54.47
71716;BME280;59568;52.128;5.434;2022-09-03T06:56:23;101265.63;;;17.15;53.59
71716;BME280;59568;52.128;5.434;2022-09-03T06:59:02;101265.91;;;17.23;54.04
71716;BME280;59568;52.128;5.434;2022-09-03T07:01:31;101275.22;;;17.29;53.63
71716;BME280;59568;52.128;5.434;2022-09-03T07:04:03;101270.00;;;17.41;54.16
71716;BME280;59568;52.128;5.434;2022-09-03T07:06:33;101273.78;;;17.52;53.72
71716;BME280;59568;52.128;5.434;2022-09-03T07:09:06;101273.44;;;17.63;53.59
71716;BME280;59568;52.128;5.434;2022-09-03T07:11:35;101270.84;;;17.75;53.78
71716;BME280;59568;52.128;5.434;2022-09-03T07:14:03;101269.06;;;17.88;53.21
71716;BME280;59568;52.128;5.434;2022-09-03T07:16:35;101280.91;;;18.03;53.55
71716;BME280;59568;52.128;5.434;2022-09-03T07:19:06;101275.22;;;18.13;52.76
71716;BME280;59568;52.128;5.434;2022-09-03T07:21:36;101273.84;;;18.28;52.99
71716;BME280;59568;52.128;5.434;2022-09-03T07:24:04;101273.22;;;18.43;53.04
71716;BME280;59568;52.128;5.434;2022-09-03T07:26:34;101272.56;;;18.59;52.42
71716;BME280;59568;52.128;5.434;2022-09-03T07:29:02;101274.13;;;18.72;52.40
71716;BME280;59568;52.128;5.434;2022-09-03T07:31:31;101275.38;;;18.87;51.53
71716;BME280;59568;52.128;5.434;2022-09-03T07:34:02;101278.56;;;19.05;52.83
71716;BME280;59568;52.128;5.434;2022-09-03T07:36:43;101283.75;;;19.13;51.20
71716;BME280;59568;52.128;5.434;2022-09-03T07:39:14;101273.94;;;19.26;51.37
71716;BME280;59568;52.128;5.434;2022-09-03T07:41:43;101279.97;;;19.39;51.25
71716;BME280;59568;52.128;5.434;2022-09-03T07:44:13;101272.66;;;19.61;51.39
71716;BME280;59568;52.128;5.434;2022-09-03T07:46:42;101278.81;;;19.77;50.65
71716;BME280;59568;52.128;5.434;2022-09-03T07:49:11;101278.44;;;19.91;49.91
71716;BME280;59568;52.128;5.434;2022-09-03T07:51:39;101276.59;;;20.07;49.96
71716;BME280;59568;52.128;5.434;2022-09-03T07:54:09;101280.03;;;20.24;49.41
71716;BME280;59568;52.128;5.434;2022-09-03T07:56:38;101275.44;;;20.37;47.10
71716;BME280;59568;52.128;5.434;2022-09-03T07:59:07;101278.34;;;20.47;48.92
71716;BME280;59568;52.128;5.434;2022-09-03T08:01:35;101273.75;;;20.60;49.21
71716;BME280;59568;52.128;5.434;2022-09-03T08:04:05;101276.06;;;20.78;47.52
71716;BME280;59568;52.128;5.434;2022-09-03T08:06:38;101271.19;;;20.80;48.02
71716;BME280;59568;52.128;5.434;2022-09-03T08:09:10;101277.34;;;21.00;47.32
71716;BME280;59568;52.128;5.434;2022-09-03T08:11:41;101275.31;;;21.12;47.12
71716;BME280;59568;52.128;5.434;2022-09-03T08:14:11;101274.88;;;21.26;47.73
71716;BME280;59568;52.128;5.434;2022-09-03T08:16:41;101273.56;;;21.36;46.46
71716;BME280;59568;52.128;5.434;2022-09-03T08:19:10;101272.34;;;21.49;46.17
71716;BME280;59568;52.128;5.434;2022-09-03T08:21:39;101275.94;;;21.57;46.07
71716;BME280;59568;52.128;5.434;2022-09-03T08:24:10;101282.72;;;21.74;47.07
71716;BME280;59568;52.128;5.434;2022-09-03T08:26:40;101277.50;;;22.01;45.52
71716;BME280;59568;52.128;5.434;2022-09-03T08:29:16;101285.69;;;22.11;45.25
71716;BME280;59568;52.128;5.434;2022-09-03T08:31:43;101282.44;;;22.22;45.58
71716;BME280;59568;52.128;5.434;2022-09-03T08:34:10;101281.97;;;22.36;43.66
71716;BME280;59568;52.128;5.434;2022-09-03T08:36:38;101288.53;;;22.42;43.66
71716;BME280;59568;52.128;5.434;2022-09-03T08:39:08;101281.72;;;22.44;44.38
71716;BME280;59568;52.128;5.434;2022-09-03T08:46:53;101281.19;;;22.85;44.19
71716;BME280;59568;52.128;5.434;2022-09-03T08:49:38;101285.25;;;23.02;42.13
71716;BME280;59568;52.128;5.434;2022-09-03T08:52:32;101285.38;;;23.09;42.53
71716;BME280;59568;52.128;5.434;2022-09-03T08:55:16;101280.56;;;23.18;41.14
71716;BME280;59568;52.128;5.434;2022-09-03T08:57:49;101282.09;;;23.19;42.22
71716;BME280;59568;52.128;5.434;2022-09-03T09:00:17;101286.94;;;23.40;43.29
71716;BME280;59568;52.128;5.434;2022-09-03T09:03:06;101284.91;;;23.64;43.77
71716;BME280;59568;52.128;5.434;2022-09-03T09:05:46;101280.47;;;23.75;41.81
71716;BME280;59568;52.128;5.434;2022-09-03T09:08:34;101285.22;;;23.89;42.23
71716;BME280;59568;52.128;5.434;2022-09-03T09:11:25;101280.78;;;24.04;40.50
71716;BME280;59568;52.128;5.434;2022-09-03T09:14:03;101283.97;;;24.17;42.45
71716;BME280;59568;52.128;5.434;2022-09-03T09:16:38;101277.09;;;24.16;41.56
71716;BME280;59568;52.128;5.434;2022-09-03T09:21:56;101272.78;;;24.48;41.60
71716;BME280;59568;52.128;5.434;2022-09-03T09:24:27;101278.28;;;24.66;41.17
71716;BME280;59568;52.128;5.434;2022-09-03T09:26:59;101277.19;;;24.75;41.30
71716;BME280;59568;52.128;5.434;2022-09-03T09:29:32;101276.91;;;24.87;41.89
71716;BME280;59568;52.128;5.434;2022-09-03T09:32:01;101271.63;;;24.98;41.01
71716;BME280;59568;52.128;5.434;2022-09-03T09:34:37;101281.59;;;25.04;41.50
71716;BME280;59568;52.128;5.434;2022-09-03T09:37:09;101277.03;;;25.08;39.84
71716;BME280;59568;52.128;5.434;2022-09-03T09:39:36;101272.06;;;25.03;39.61
71716;BME280;59568;52.128;5.434;2022-09-03T09:42:06;101274.72;;;25.03;38.75
71716;BME280;59568;52.128;5.434;2022-09-03T09:44:39;101276.31;;;25.19;39.84
71716;BME280;59568;52.128;5.434;2022-09-03T09:47:12;101270.66;;;25.31;38.77
71716;BME280;59568;52.128;5.434;2022-09-03T09:52:14;101281.84;;;25.47;38.27
71716;BME280;59568;52.128;5.434;2022-09-03T09:54:43;101279.16;;;25.55;38.29
71716;BME280;59568;52.128;5.434;2022-09-03T09:57:15;101270.41;;;25.58;37.15
71716;BME280;59568;52.128;5.434;2022-09-03T09:59:44;101274.22;;;25.67;39.16
71716;BME280;59568;52.128;5.434;2022-09-03T10:02:24;101268.16;;;25.81;36.30
71716;BME280;59568;52.128;5.434;2022-09-03T10:05:00;101269.75;;;25.97;39.44
71716;BME280;59568;52.128;5.434;2022-09-03T10:07:29;101265.16;;;26.11;39.69
71716;BME280;59568;52.128;5.434;2022-09-03T10:10:19;101265.56;;;26.17;38.93
71716;BME280;59568;52.128;5.434;2022-09-03T10:12:48;101261.34;;;26.16;37.60
71716;BME280;59568;52.128;5.434;2022-09-03T10:23:23;101265.53;;;26.53;38.21
71716;BME280;59568;52.128;5.434;2022-09-03T10:28:22;101258.28;;;26.61;37.25
71716;BME280;59568;52.128;5.434;2022-09-03T10:33:51;101261.28;;;26.88;35.20
71716;BME280;59568;52.128;5.434;2022-09-03T10:39:13;101249.44;;;26.85;35.00
71716;BME280;59568;52.128;5.434;2022-09-03T10:42:29;101252.03;;;27.10;37.13
71716;BME280;59568;52.128;5.434;2022-09-03T10:45:14;101248.56;;;27.24;35.87
71716;BME280;59568;52.128;5.434;2022-09-03T10:50:47;101250.50;;;27.13;35.07
71716;BME280;59568;52.128;5.434;2022-09-03T11:02:16;101248.63;;;27.87;37.04
71716;BME280;59568;52.128;5.434;2022-09-03T11:05:09;101251.13;;;28.09;35.07
71716;BME280;59568;52.128;5.434;2022-09-03T11:07:44;101253.13;;;28.01;33.87
71716;BME280;59568;52.128;5.434;2022-09-03T11:15:33;101246.88;;;28.15;36.41
71716;BME280;59568;52.128;5.434;2022-09-03T11:20:41;101245.13;;;27.94;32.74
71716;BME280;59568;52.128;5.434;2022-09-03T11:23:10;101249.97;;;28.14;35.87
71716;BME280;59568;52.128;5.434;2022-09-03T11:25:45;101242.63;;;28.21;33.70
71716;BME280;59568;52.128;5.434;2022-09-03T11:28:20;101235.72;;;28.17;34.28
71716;BME280;59568;52.128;5.434;2022-09-03T11:31:15;101228.81;;;28.19;34.62
71716;BME280;59568;52.128;5.434;2022-09-03T11:33:50;101232.06;;;28.41;33.06
71716;BME280;59568;52.128;5.434;2022-09-03T11:36:32;101229.91;;;28.67;35.70
71716;BME280;59568;52.128;5.434;2022-09-03T11:39:00;101225.09;;;28.85;35.76
71716;BME280;59568;52.128;5.434;2022-09-03T11:41:38;101227.56;;;29.03;34.92
71716;BME280;59568;52.128;5.434;2022-09-03T11:44:18;101228.28;;;29.07;35.20
71716;BME280;59568;52.128;5.434;2022-09-03T11:46:57;101218.84;;;28.96;33.08
71716;BME280;59568;52.128;5.434;2022-09-03T11:49:31;101227.91;;;28.75;33.79
71716;BME280;59568;52.128;5.434;2022-09-03T11:52:01;101218.53;;;28.90;32.63
71716;BME280;59568;52.128;5.434;2022-09-03T11:54:42;101219.50;;;29.03;33.98
71716;BME280;59568;52.128;5.434;2022-09-03T11:57:26;101210.50;;;29.17;33.92
71716;BME280;59568;52.128;5.434;2022-09-03T12:00:10;101219.53;;;29.34;34.94
71716;BME280;59568;52.128;5.434;2022-09-03T12:08:49;101216.84;;;29.34;33.50
71716;BME280;59568;52.128;5.434;2022-09-03T12:19:55;101223.66;;;29.42;32.66
71716;BME280;59568;52.128;5.434;2022-09-03T12:22:25;101221.19;;;29.52;33.60
71716;BME280;59568;52.128;5.434;2022-09-03T12:24:54;101230.16;;;29.72;34.96
71716;BME280;59568;52.128;5.434;2022-09-03T12:27:24;101233.69;;;29.93;34.80
71716;BME280;59568;52.128;5.434;2022-09-03T12:30:04;101226.19;;;29.80;32.18
71716;BME280;59568;52.128;5.434;2022-09-03T12:32:33;101233.44;;;29.83;34.06
71716;BME280;59568;52.128;5.434;2022-09-03T12:35:19;101228.94;;;29.77;33.85
71716;BME280;59568;52.128;5.434;2022-09-03T12:38:07;101224.06;;;29.68;32.54
71716;BME280;59568;52.128;5.434;2022-09-03T12:40:42;101220.38;;;29.55;33.80
71716;BME280;59568;52.128;5.434;2022-09-03T12:43:29;101228.22;;;29.73;31.44
71716;BME280;59568;52.128;5.434;2022-09-03T12:46:13;101222.91;;;29.65;32.83
71716;BME280;59568;52.128;5.434;2022-09-03T12:48:56;101232.78;;;29.76;32.95
71716;BME280;59568;52.128;5.434;2022-09-03T12:51:45;101230.16;;;29.72;32.48
71716;BME280;59568;52.128;5.434;2022-09-03T12:54:17;101225.38;;;29.56;32.01
71716;BME280;59568;52.128;5.434;2022-09-03T12:56:52;101224.06;;;29.68;32.53
71716;BME280;59568;52.128;5.434;2022-09-03T12:59:20;101223.38;;;29.87;33.72
71716;BME280;59568;52.128;5.434;2022-09-03T13:01:52;101219.41;;;29.96;31.88
71716;BME280;59568;52.128;5.434;2022-09-03T13:04:25;101219.50;;;30.12;32.82
71716;BME280;59568;52.128;5.434;2022-09-03T13:09:31;101222.53;;;30.14;34.21
71716;BME280;59568;52.128;5.434;2022-09-03T13:11:59;101228.22;;;30.20;32.68
71716;BME280;59568;52.128;5.434;2022-09-03T13:14:45;101221.75;;;30.17;33.34
71716;BME280;59568;52.128;5.434;2022-09-03T13:17:29;101222.84;;;30.20;32.28
71716;BME280;59568;52.128;5.434;2022-09-03T13:20:23;101223.72;;;29.90;31.64
71716;BME280;59568;52.128;5.434;2022-09-03T13:23:21;101221.50;;;30.08;34.37
71716;BME280;59568;52.128;5.434;2022-09-03T13:26:00;101220.56;;;30.18;32.42
71716;BME280;59568;52.128;5.434;2022-09-03T13:36:45;101206.72;;;30.40;32.03
71716;BME280;59568;52.128;5.434;2022-09-03T13:39:42;101208.19;;;30.44;34.41
71716;BME280;59568;52.128;5.434;2022-09-03T13:42:21;101211.06;;;30.34;30.52
71716;BME280;59568;52.128;5.434;2022-09-03T13:45:22;101212.00;;;30.23;34.79
71716;BME280;59568;52.128;5.434;2022-09-03T13:47:59;101216.00;;;30.39;35.73
71716;BME280;59568;52.128;5.434;2022-09-03T13:51:48;101214.63;;;30.51;34.90
71716;BME280;59568;52.128;5.434;2022-09-03T13:54:41;101209.84;;;30.58;34.67
71716;BME280;59568;52.128;5.434;2022-09-03T13:57:36;101208.56;;;30.46;32.03
71716;BME280;59568;52.128;5.434;2022-09-03T14:00:08;101210.00;;;30.51;34.33
71716;BME280;59568;52.128;5.434;2022-09-03T14:02:50;101210.53;;;30.62;32.89
71716;BME280;59568;52.128;5.434;2022-09-03T14:08:04;101202.03;;;30.44;34.00
71716;BME280;59568;52.128;5.434;2022-09-03T14:11:20;101205.41;;;30.48;35.35
71716;BME280;59568;52.128;5.434;2022-09-03T14:14:33;101206.81;;;30.56;35.81
71716;BME280;59568;52.128;5.434;2022-09-03T14:17:14;101208.34;;;30.57;34.30
71716;BME280;59568;52.128;5.434;2022-09-03T14:20:28;101211.16;;;30.50;35.63
71716;BME280;59568;52.128;5.434;2022-09-03T14:23:09;101207.72;;;30.26;34.65
71716;BME280;59568;52.128;5.434;2022-09-03T14:25:59;101219.00;;;30.21;36.04
71716;BME280;59568;52.128;5.434;2022-09-03T14:28:43;101215.03;;;30.25;33.27
71716;BME280;59568;52.128;5.434;2022-09-03T14:31:19;101216.28;;;30.21;36.72
71716;BME280;59568;52.128;5.434;2022-09-03T14:36:50;101211.50;;;30.09;36.06
71716;BME280;59568;52.128;5.434;2022-09-03T14:39:32;101209.41;;;29.96;35.88
71716;BME280;59568;52.128;5.434;2022-09-03T14:56:49;101199.75;;;29.72;34.16
71716;BME280;59568;52.128;5.434;2022-09-03T15:10:26;101210.28;;;29.35;37.45
71716;BME280;59568;52.128;5.434;2022-09-03T15:13:06;101213.94;;;29.48;38.28
71716;BME280;59568;52.128;5.434;2022-09-03T15:21:18;101205.84;;;29.21;37.98
71716;BME280;59568;52.128;5.434;2022-09-03T15:37:46;101219.94;;;28.67;37.56
71716;BME280;59568;52.128;5.434;2022-09-03T15:42:51;101215.78;;;28.59;39.96
71716;BME280;59568;52.128;5.434;2022-09-03T15:45:37;101213.16;;;28.52;38.65
71716;BME280;59568;52.128;5.434;2022-09-03T15:51:04;101215.22;;;28.37;39.83
71716;BME280;59568;52.128;5.434;2022-09-03T15:53:40;101205.31;;;28.27;38.68
71716;BME280;59568;52.128;5.434;2022-09-03T16:01:56;101212.06;;;28.01;41.55
71716;BME280;59568;52.128;5.434;2022-09-03T16:10:06;101215.03;;;27.58;39.08
71716;BME280;59568;52.128;5.434;2022-09-03T16:13:19;101215.88;;;27.44;39.38
71716;BME280;59568;52.128;5.434;2022-09-03T16:16:05;101216.69;;;27.34;41.14
71716;BME280;59568;52.128;5.434;2022-09-03T16:21:49;101215.19;;;27.18;40.70